Aquilla, Texas
Current Conditions -  °F | °C
As of 8:51 PM on Tuesday 25 Nov 2014 (Local Time) from KACT Reporting Station
Clear Clear  
Wind Chill: 34°   Ceiling: Unl
Heat Index: 40°   Visibility: 10mi
Dew Point: 34°   Wind: 8mph
Humidity: 79%   Direction: 200°SSW
Pressure: 30.18"   Gusts: NA
Location:  31.85°N, 97.22°W
Report Text: KACT 260251Z 20007KT 10SM CLR 04/01 A3018 RMK AO2 SLP219 T00440011 58003
Loading
Personal Weather Stations






























Interactive Weather Map New forecast layout! Learn more

10-Day Weather Forecast

Advertisements
Track Severe Weather on mobile